createdAt,value
2023-07-28T00:02:30.645Z,17.41
2023-07-28T00:05:26.170Z,17.8
2023-07-28T00:08:21.721Z,17.88
2023-07-28T00:11:17.292Z,17.91
2023-07-28T00:14:12.887Z,17.75
2023-07-28T00:17:08.390Z,17.85
2023-07-28T00:20:04.944Z,17.44
2023-07-28T00:23:00.549Z,17.46
2023-07-28T00:25:56.082Z,17.53
2023-07-28T00:28:51.641Z,17.18
2023-07-28T00:31:47.193Z,17.4
2023-07-28T00:34:42.782Z,17.39
2023-07-28T00:37:38.316Z,17.19
2023-07-28T00:40:34.869Z,17.44
2023-07-28T00:43:30.460Z,17.51
2023-07-28T00:46:27.071Z,17.78
2023-07-28T00:49:22.529Z,17.71
2023-07-28T00:52:19.140Z,17.85
2023-07-28T00:55:14.708Z,17.62
2023-07-28T00:58:11.225Z,17.33
2023-07-28T01:01:06.795Z,17.07
2023-07-28T01:04:04.365Z,17.3
2023-07-28T01:07:09.888Z,17.45
2023-07-28T01:10:11.419Z,16.97
2023-07-28T01:13:07.035Z,16.73
2023-07-28T01:16:02.662Z,16.63
2023-07-28T01:18:58.153Z,17.19
2023-07-28T01:22:01.685Z,17.05
2023-07-28T01:25:07.225Z,16.89
2023-07-28T01:28:03.821Z,16.69
2023-07-28T01:31:00.347Z,16.47
2023-07-28T01:33:55.876Z,16.09
2023-07-28T01:36:51.440Z,16.61
2023-07-28T01:39:47.014Z,16.81
2023-07-28T01:42:42.573Z,16.88
2023-07-28T01:45:40.157Z,16.75
2023-07-28T01:48:35.754Z,16.4
2023-07-28T01:51:31.273Z,16.73
2023-07-28T01:54:26.805Z,16.79
2023-07-28T01:57:22.378Z,16.98
2023-07-28T02:00:18.979Z,17.18
2023-07-28T02:03:14.522Z,16.99
2023-07-28T02:06:10.041Z,17.12
2023-07-28T02:09:05.637Z,17.15
2023-07-28T02:12:01.197Z,17.22
2023-07-28T02:14:56.764Z,16.91
2023-07-28T02:17:52.342Z,16.62
2023-07-28T02:20:48.893Z,16.76
2023-07-28T02:23:44.445Z,16.77
2023-07-28T02:26:39.991Z,16.57
2023-07-28T02:29:35.555Z,15.99
2023-07-28T02:32:32.148Z,15.75
2023-07-28T02:35:27.687Z,16.1
2023-07-28T02:38:23.267Z,16.11
2023-07-28T02:41:18.834Z,16.31
2023-07-28T02:44:14.375Z,16.48
2023-07-28T02:47:09.964Z,16.26
2023-07-28T02:50:06.494Z,16.38
2023-07-28T02:53:02.054Z,16.15
2023-07-28T02:55:58.607Z,16.18
2023-07-28T02:58:54.174Z,16.55
2023-07-28T03:01:52.842Z,16.56
2023-07-28T03:04:48.328Z,16.59
2023-07-28T03:07:43.831Z,16.15
2023-07-28T03:10:39.416Z,16.1
2023-07-28T03:13:35.014Z,16.05
2023-07-28T03:16:30.566Z,15.96
2023-07-28T03:19:26.072Z,15.78
2023-07-28T03:22:21.634Z,15.77
2023-07-28T03:25:19.239Z,15.77
2023-07-28T03:28:14.826Z,16.12
2023-07-28T03:31:10.335Z,16.41
2023-07-28T03:34:05.924Z,16.43
2023-07-28T03:37:01.476Z,16.38
2023-07-28T03:39:57.065Z,16.48
2023-07-28T03:42:52.606Z,16.5
2023-07-28T03:45:49.166Z,16.32
2023-07-28T03:48:44.702Z,16.28
2023-07-28T03:51:40.268Z,16.87
2023-07-28T03:54:35.828Z,17.39
2023-07-28T03:57:31.413Z,17.13
2023-07-28T04:00:26.984Z,17.3
2023-07-28T04:03:22.486Z,17.86
2023-07-28T04:06:18.086Z,17.9
2023-07-28T04:09:14.614Z,18.02
2023-07-28T04:12:10.204Z,18.4
2023-07-28T04:15:06.782Z,18.35
2023-07-28T04:18:02.368Z,18.45
2023-07-28T04:20:57.861Z,18.7
2023-07-28T04:23:53.416Z,18.57
2023-07-28T04:26:50.218Z,18.92
2023-07-28T04:29:45.551Z,19.03
2023-07-28T04:32:41.143Z,19.21
2023-07-28T04:35:37.684Z,19.3
2023-07-28T04:38:33.255Z,19.69
2023-07-28T04:41:29.812Z,19.54
2023-07-28T04:44:25.357Z,19.76
2023-07-28T04:47:20.954Z,19.46
2023-07-28T04:50:16.468Z,19.52
2023-07-28T04:53:12.065Z,19.69
2023-07-28T04:56:08.630Z,19.83
2023-07-28T04:59:07.220Z,19.9
2023-07-28T05:02:02.739Z,19.83
2023-07-28T05:04:58.274Z,20.05
2023-07-28T05:07:53.857Z,20.13
2023-07-28T05:10:49.460Z,20
2023-07-28T05:13:44.999Z,20.09
2023-07-28T05:16:40.533Z,20.56
2023-07-28T05:19:38.094Z,20.99
2023-07-28T05:22:33.668Z,20.67
2023-07-28T05:25:29.236Z,20.66
2023-07-28T05:28:25.874Z,20.85
2023-07-28T05:31:21.453Z,20.89
2023-07-28T05:34:16.892Z,20.83
2023-07-28T05:37:12.481Z,20.8
2023-07-28T05:40:09.085Z,20.8
2023-07-28T05:43:04.607Z,20.88
2023-07-28T05:46:01.169Z,21.24
2023-07-28T05:48:58.704Z,21.3
2023-07-28T05:51:54.227Z,21.45
2023-07-28T05:54:49.817Z,21.39
2023-07-28T05:57:45.369Z,21.31
2023-07-28T06:00:42.983Z,21.42
2023-07-28T06:03:38.595Z,21.54
2023-07-28T06:06:35.040Z,21.76
2023-07-28T06:09:30.663Z,21.78
2023-07-28T06:12:26.205Z,21.81
2023-07-28T06:15:21.762Z,21.92
2023-07-28T06:18:17.295Z,22.07
2023-07-28T06:21:14.869Z,22.34
2023-07-28T06:24:10.446Z,22.53
2023-07-28T06:27:09.011Z,22.32
2023-07-28T06:30:06.559Z,22.34
2023-07-28T06:33:04.139Z,22.48
2023-07-28T06:36:00.649Z,22.54
2023-07-28T06:38:57.188Z,22.56
2023-07-28T06:41:52.781Z,22.56
2023-07-28T06:44:48.381Z,22.74
2023-07-28T06:47:44.880Z,22.93
2023-07-28T06:50:41.431Z,23.01
2023-07-28T06:53:37.018Z,22.98
2023-07-28T06:56:32.585Z,22.84
2023-07-28T06:59:28.104Z,22.9
2023-07-28T07:02:24.707Z,23.15
2023-07-28T07:05:20.289Z,23.16
2023-07-28T07:08:15.810Z,23.26
2023-07-28T07:11:12.385Z,23.39
2023-07-28T07:14:08.924Z,23.35
2023-07-28T07:17:05.515Z,23.52
2023-07-28T07:20:01.062Z,23.49
2023-07-28T07:22:58.291Z,23.77
2023-07-28T07:25:55.224Z,23.72
2023-07-28T07:28:50.744Z,23.94
2023-07-28T07:31:46.285Z,23.8
2023-07-28T07:34:41.824Z,23.95
2023-07-28T07:37:38.453Z,24.1
2023-07-28T07:40:34.005Z,24.2
2023-07-28T07:43:29.553Z,24.41
2023-07-28T07:46:27.104Z,24.36
2023-07-28T07:49:23.654Z,24.36
2023-07-28T07:52:19.232Z,24.57
2023-07-28T07:55:14.824Z,24.78
2023-07-28T07:58:10.386Z,24.75
2023-07-28T08:01:07.990Z,24.8
2023-07-28T08:04:05.515Z,24.77
2023-07-28T08:07:02.051Z,24.81
2023-07-28T08:09:57.608Z,24.85
2023-07-28T08:12:53.152Z,24.74
2023-07-28T08:15:49.746Z,24.86
2023-07-28T08:18:47.275Z,24.88
2023-07-28T08:21:43.849Z,25.04
2023-07-28T08:24:39.406Z,25.19
2023-07-28T08:27:35.947Z,25.52
2023-07-28T08:30:32.516Z,25.73
2023-07-28T08:33:28.035Z,25.48
2023-07-28T08:36:23.615Z,25.47
2023-07-28T08:39:19.237Z,25.8
2023-07-28T08:42:14.764Z,25.78
2023-07-28T08:45:10.356Z,25.55
2023-07-28T08:48:07.104Z,25.79
2023-07-28T08:51:03.451Z,26.06
2023-07-28T08:53:59.007Z,26.41
2023-07-28T08:56:58.528Z,26.44
2023-07-28T08:59:55.116Z,26.78
2023-07-28T09:02:51.735Z,26.9
2023-07-28T09:05:50.234Z,26.59
2023-07-28T09:08:47.762Z,26.99
2023-07-28T09:11:47.346Z,26.95
2023-07-28T09:14:45.882Z,26.83
2023-07-28T09:17:43.459Z,27.28
2023-07-28T09:20:41.981Z,27.1
2023-07-28T09:23:40.540Z,27.3
2023-07-28T09:26:39.195Z,27.66
2023-07-28T09:29:41.735Z,27.74
2023-07-28T09:32:39.321Z,27.62
2023-07-28T09:35:48.743Z,28.11
2023-07-28T09:38:44.271Z,27.91
2023-07-28T09:41:45.810Z,27.91
2023-07-28T09:44:41.449Z,28.01
2023-07-28T09:47:38.981Z,28.48
2023-07-28T09:50:38.521Z,28.16
2023-07-28T09:53:37.087Z,28
2023-07-28T09:56:33.644Z,28.01
2023-07-28T09:59:33.199Z,27.8
2023-07-28T10:02:29.826Z,28.35
2023-07-28T10:05:27.298Z,28.37
2023-07-28T10:08:26.650Z,28.73
2023-07-28T10:11:26.416Z,28.78
2023-07-28T10:14:28.021Z,28.59
2023-07-28T10:17:28.484Z,29.31
2023-07-28T10:20:30.057Z,29.43
2023-07-28T10:23:25.570Z,29.11
2023-07-28T10:26:36.332Z,29.43
2023-07-28T10:29:38.681Z,29.29
2023-07-28T10:32:38.243Z,29.54
2023-07-28T10:35:44.753Z,29.28
2023-07-28T10:38:55.311Z,29.17
2023-07-28T10:44:56.376Z,29.43
2023-07-28T10:47:53.985Z,29.69
2023-07-28T10:50:51.538Z,29.71
2023-07-28T10:53:50.033Z,29.65
2023-07-28T10:56:45.623Z,30.26
2023-07-28T10:59:43.188Z,30.18
2023-07-28T11:02:43.807Z,29.99
2023-07-28T11:05:43.307Z,30.41
2023-07-28T11:08:39.846Z,30.13
2023-07-28T11:11:42.709Z,30.26
2023-07-28T11:14:41.926Z,30.41
2023-07-28T11:17:40.570Z,30.37
2023-07-28T11:20:37.055Z,30.21
2023-07-28T11:23:34.601Z,30.6
2023-07-28T11:26:31.165Z,30.6
2023-07-28T11:29:27.697Z,30.53
2023-07-28T11:32:23.291Z,30.87
2023-07-28T11:35:20.854Z,31.16
2023-07-28T11:38:18.424Z,30.95
2023-07-28T11:41:17.349Z,31.76
2023-07-28T11:44:21.522Z,31.63
2023-07-28T11:47:19.056Z,31.24
2023-07-28T11:50:23.586Z,31.21
2023-07-28T11:53:21.140Z,31.44
2023-07-28T11:56:16.666Z,31.45
2023-07-28T11:59:15.236Z,31.85
2023-07-28T12:05:21.358Z,32.21
2023-07-28T12:08:25.887Z,32.32
2023-07-28T12:20:37.001Z,32.35
2023-07-28T12:26:35.278Z,32.96
2023-07-28T12:29:31.788Z,32.79
2023-07-28T12:32:35.970Z,33.19
2023-07-28T12:41:41.221Z,32.96
2023-07-28T12:47:37.712Z,33.67
2023-07-28T12:50:41.564Z,33.4
2023-07-28T12:53:32.130Z,33.83
2023-07-28T12:59:26.578Z,34.29
2023-07-28T13:02:21.823Z,35.22
2023-07-28T13:05:18.442Z,34.97
2023-07-28T13:08:14.920Z,34.18
2023-07-28T13:14:11.051Z,35.02
2023-07-28T13:17:07.604Z,34.46
2023-07-28T13:20:05.106Z,33.76
2023-07-28T13:23:00.740Z,33.46
2023-07-28T13:25:56.289Z,33.88
2023-07-28T13:28:52.804Z,34
2023-07-28T13:31:49.416Z,34.52
2023-07-28T13:34:45.978Z,34.75
2023-07-28T13:37:42.565Z,34.96
2023-07-28T13:40:39.091Z,35.09
2023-07-28T13:43:38.660Z,34.62
2023-07-28T13:46:34.181Z,34.23
2023-07-28T13:49:29.797Z,34.67
2023-07-28T13:52:25.776Z,34.98
2023-07-28T13:55:40.910Z,34.57
2023-07-28T13:58:23.433Z,34.82
2023-07-28T14:01:19.043Z,36.38
2023-07-28T14:04:15.550Z,36.37
2023-07-28T14:07:11.143Z,35.43
2023-07-28T14:10:09.678Z,35.24
2023-07-28T14:13:05.326Z,35.33
2023-07-28T14:16:00.846Z,34.55
2023-07-28T14:18:56.310Z,34.43
2023-07-28T14:21:52.912Z,35.24
2023-07-28T14:24:49.475Z,35.26
2023-07-28T14:27:45.026Z,36.67
2023-07-28T14:30:46.648Z,37.14
2023-07-28T14:33:42.155Z,36.23
2023-07-28T14:36:37.714Z,37.57
2023-07-28T14:39:33.240Z,36.54
2023-07-28T14:42:28.843Z,35.93
2023-07-28T14:45:25.377Z,36.39
2023-07-28T14:48:20.954Z,36.52
2023-07-28T14:51:16.541Z,37.21
2023-07-28T14:54:13.037Z,36.92
2023-07-28T14:57:28.778Z,36.87
2023-07-28T15:00:15.174Z,36.74
2023-07-28T15:03:10.796Z,37.01
2023-07-28T15:06:06.571Z,37.08
2023-07-28T15:09:01.893Z,37.18
2023-07-28T15:11:58.409Z,37.12
2023-07-28T15:14:53.988Z,37.35
2023-07-28T15:17:49.619Z,36.49
2023-07-28T15:20:46.107Z,36.5
2023-07-28T15:23:41.633Z,36.36
2023-07-28T15:26:39.273Z,37.18
2023-07-28T15:29:35.744Z,39.09
2023-07-28T15:32:32.352Z,38.34
2023-07-28T15:35:27.889Z,37.05
2023-07-28T15:38:24.473Z,36.55
2023-07-28T15:41:20.032Z,37.48
2023-07-28T15:44:16.582Z,38.11
2023-07-28T15:47:12.130Z,38.46
2023-07-28T15:50:08.749Z,37.84
2023-07-28T15:53:05.250Z,39.54
2023-07-28T15:56:00.767Z,39.46
2023-07-28T15:58:56.388Z,38.03
2023-07-28T16:01:51.993Z,39.05
2023-07-28T16:04:47.531Z,38.08
2023-07-28T16:07:43.066Z,38.01
2023-07-28T16:10:41.743Z,37.99
2023-07-28T16:13:37.166Z,37.96
2023-07-28T16:16:32.806Z,37.01
2023-07-28T16:19:28.304Z,39.3
2023-07-28T16:22:26.850Z,39.03
2023-07-28T16:25:24.462Z,38.42
2023-07-28T16:28:21.012Z,40.17
2023-07-28T16:31:16.598Z,41
2023-07-28T16:34:12.112Z,39.3
2023-07-28T16:37:07.670Z,39.18
2023-07-28T16:40:04.236Z,39.71
2023-07-28T16:42:59.809Z,39.87
2023-07-28T16:45:55.391Z,37.95
2023-07-28T16:48:51.941Z,38.54
2023-07-28T16:51:48.446Z,39.73
2023-07-28T16:54:44.001Z,38.71
2023-07-28T16:57:40.569Z,39.06
2023-07-28T17:00:37.173Z,38.52
2023-07-28T17:03:32.793Z,35.93
2023-07-28T17:06:28.259Z,34.73
2023-07-28T17:09:25.822Z,33.63
2023-07-28T17:12:21.396Z,33.25
2023-07-28T17:15:26.413Z,32.94
2023-07-28T17:18:17.566Z,32.69
2023-07-28T17:21:13.052Z,31.96
2023-07-28T17:24:08.610Z,31.93
2023-07-28T17:27:06.205Z,31.85
2023-07-28T17:30:01.768Z,31.37
2023-07-28T17:32:58.328Z,31.26
2023-07-28T17:35:53.866Z,30.93
2023-07-28T17:38:49.432Z,30.67
2023-07-28T17:41:45.023Z,31.2
2023-07-28T17:44:40.525Z,30.2
2023-07-28T17:47:38.139Z,29.9
2023-07-28T17:50:33.637Z,30.12
2023-07-28T17:53:31.256Z,30
2023-07-28T17:56:26.768Z,29.75
2023-07-28T17:59:23.336Z,29.6
2023-07-28T18:02:18.939Z,29.4
2023-07-28T18:05:14.475Z,29.05
2023-07-28T18:08:13.065Z,28.77
2023-07-28T18:11:08.591Z,28.54
2023-07-28T18:14:05.180Z,28.3
2023-07-28T18:17:02.830Z,28.17
2023-07-28T18:19:59.245Z,28
2023-07-28T18:22:54.843Z,27.79
2023-07-28T18:25:50.393Z,27.59
2023-07-28T18:28:45.954Z,27.4
2023-07-28T18:31:41.515Z,27.23
2023-07-28T18:34:37.098Z,27.14
2023-07-28T18:37:32.638Z,26.95
2023-07-28T18:40:30.542Z,26.79
2023-07-28T18:43:27.773Z,26.55
2023-07-28T18:46:23.302Z,26.27
2023-07-28T18:49:18.892Z,26.06
2023-07-28T18:52:14.454Z,25.85
2023-07-28T18:55:10.003Z,25.8
2023-07-28T18:58:05.550Z,25.77
2023-07-28T19:01:01.092Z,25.63
2023-07-28T19:03:57.769Z,25.55
2023-07-28T19:06:53.231Z,25.38
2023-07-28T19:09:49.797Z,25.13
2023-07-28T19:12:45.372Z,25.02
2023-07-28T19:15:47.506Z,25.04
2023-07-28T19:18:43.492Z,25.1
2023-07-28T19:21:39.073Z,25.01
2023-07-28T19:24:34.600Z,24.9
2023-07-28T19:27:32.308Z,24.81
2023-07-28T19:30:27.739Z,24.81
2023-07-28T19:33:23.258Z,24.8
2023-07-28T19:36:19.808Z,24.66
2023-07-28T19:39:15.403Z,24.44
2023-07-28T19:42:10.960Z,24.4
2023-07-28T19:45:07.546Z,24.36
2023-07-28T19:48:04.181Z,24.31
2023-07-28T19:51:00.644Z,24.26
2023-07-28T19:54:00.177Z,24.29
2023-07-28T19:56:57.744Z,24.14
2023-07-28T19:59:53.297Z,23.99
2023-07-28T20:02:48.944Z,23.91
2023-07-28T20:05:45.441Z,23.87
2023-07-28T20:08:41.021Z,23.73
2023-07-28T20:11:36.548Z,23.71
2023-07-28T20:14:32.115Z,23.68
2023-07-28T20:17:29.691Z,23.51
2023-07-28T20:20:25.216Z,23.42
2023-07-28T20:23:29.767Z,23.37
2023-07-28T20:26:26.311Z,23.38
2023-07-28T20:29:21.957Z,23.26
2023-07-28T20:32:17.494Z,23.3
2023-07-28T20:35:15.075Z,23.29
2023-07-28T20:38:10.533Z,23.11
2023-07-28T20:41:07.133Z,22.92
2023-07-28T20:44:04.691Z,22.93
2023-07-28T20:47:05.275Z,22.9
2023-07-28T20:50:01.809Z,22.87
2023-07-28T20:52:58.355Z,22.85
2023-07-28T20:55:53.956Z,22.8
2023-07-28T20:58:50.516Z,22.76
2023-07-28T21:01:46.025Z,22.6
2023-07-28T21:04:42.617Z,22.53
2023-07-28T21:07:40.179Z,22.45
2023-07-28T21:10:36.738Z,22.43
2023-07-28T21:13:32.284Z,22.47
2023-07-28T21:16:27.951Z,22.51
2023-07-28T21:19:23.398Z,22.51
2023-07-28T21:22:19.991Z,22.61
2023-07-28T21:25:15.510Z,22.58
2023-07-28T21:28:12.103Z,22.54
2023-07-28T21:31:07.691Z,22.46
2023-07-28T21:34:06.215Z,22.45
2023-07-28T21:37:01.744Z,22.38
2023-07-28T21:39:58.295Z,22.39
2023-07-28T21:42:53.878Z,22.48
2023-07-28T21:45:50.473Z,22.5
2023-07-28T21:48:47.031Z,22.42
2023-07-28T21:51:42.568Z,22.44
2023-07-28T21:54:38.104Z,22.47
2023-07-28T21:57:33.680Z,22.27
2023-07-28T22:00:29.207Z,22.27
2023-07-28T22:03:24.875Z,22.24
2023-07-28T22:06:20.397Z,22.17
2023-07-28T22:09:16.997Z,22.16
2023-07-28T22:12:12.502Z,22.21
2023-07-28T22:15:09.083Z,22.23
2023-07-28T22:18:04.639Z,22.19
2023-07-28T22:21:02.212Z,21.97
2023-07-28T22:23:57.769Z,21.76
2023-07-28T22:26:53.272Z,21.74
2023-07-28T22:29:51.877Z,21.77
2023-07-28T22:32:47.443Z,21.87
2023-07-28T22:35:42.991Z,21.85
2023-07-28T22:38:39.529Z,21.93
2023-07-28T22:41:37.430Z,21.96
2023-07-28T22:44:34.654Z,21.89
2023-07-28T22:47:30.232Z,21.98
2023-07-28T22:50:26.770Z,22
2023-07-28T22:53:22.305Z,22.08
2023-07-28T22:56:17.908Z,22.1
2023-07-28T22:59:13.452Z,22.12
2023-07-28T23:02:10.060Z,22.54
2023-07-28T23:05:09.564Z,22.9
2023-07-28T23:08:06.127Z,23.02
2023-07-28T23:11:01.691Z,22.74
2023-07-28T23:13:57.200Z,22.83
2023-07-28T23:16:53.885Z,22.7
2023-07-28T23:19:50.373Z,22.55
2023-07-28T23:22:45.963Z,22.94
2023-07-28T23:25:41.541Z,22.88
2023-07-28T23:28:37.084Z,22.41
2023-07-28T23:31:43.640Z,22.58
2023-07-28T23:34:39.150Z,22.85
2023-07-28T23:37:34.747Z,23.02
2023-07-28T23:40:30.264Z,22.53
2023-07-28T23:43:25.845Z,22.26
2023-07-28T23:46:25.433Z,22.67
2023-07-28T23:49:20.926Z,22.91
2023-07-28T23:52:18.545Z,22.94
2023-07-28T23:55:14.053Z,22.99
2023-07-28T23:58:10.622Z,23.12
